Time;durP1;ratioP1;P1;durP2;ratioP2;P2;SDS_P1;SDS_P2;PMS_P1;PMS_P2;Temp;Humidity;BMP_temperature;BMP_pressure;BME280_temperature;BME280_humidity;BME280_pressure;Samples;Min_cycle;Max_cycle;Signal;HPM_P1;HPM_P2
2021/11/04 00:02:08;;;;;;;23.20;13.23;;;7.40;99.90;;;;;;5064728;28;20037;-43
2021/11/04 00:04:34;;;;;;;27.83;14.07;;;7.40;99.90;;;;;;5052240;28;20376;-43
2021/11/04 00:07:00;;;;;;;39.65;13.48;;;7.40;99.90;;;;;;5064762;28;20028;-43
2021/11/04 00:09:25;;;;;;;29.65;13.45;;;7.40;99.90;;;;;;5053114;28;20029;-43
2021/11/04 00:11:51;;;;;;;25.63;12.52;;;7.40;99.90;;;;;;5063599;28;20774;-42
2021/11/04 00:14:17;;;;;;;24.60;13.15;;;7.40;99.90;;;;;;5053473;28;20116;-42
2021/11/04 00:16:43;;;;;;;28.45;12.88;;;7.50;99.90;;;;;;5058502;28;20475;-43
2021/11/04 00:19:08;;;;;;;24.08;12.75;;;7.50;99.90;;;;;;5051487;28;20036;-43
2021/11/04 00:21:34;;;;;;;26.75;13.57;;;7.60;99.90;;;;;;5055997;28;20024;-43
2021/11/04 00:23:59;;;;;;;34.10;13.52;;;7.60;99.90;;;;;;5055011;28;20025;-42
2021/11/04 00:26:25;;;;;;;29.33;12.45;;;7.60;99.90;;;;;;5052748;28;20570;-42
2021/11/04 00:28:53;;;;;;;24.20;11.90;;;7.60;99.90;;;;;;5056873;28;20025;-42
2021/11/04 00:31:18;;;;;;;27.13;12.32;;;7.60;99.90;;;;;;5050104;28;20037;-43
2021/11/04 00:33:44;;;;;;;25.40;11.88;;;7.50;99.90;;;;;;5057950;28;20027;-42
2021/11/04 00:36:13;;;;;;;19.42;10.80;;;7.50;99.90;;;;;;5067913;28;20017;-43
2021/11/04 00:38:38;;;;;;;23.05;11.57;;;7.50;99.90;;;;;;5057794;28;20025;-43
2021/11/04 00:41:07;;;;;;;30.75;12.50;;;7.50;99.90;;;;;;5068248;28;20024;-42
2021/11/04 00:43:32;;;;;;;30.30;12.05;;;7.40;99.90;;;;;;5057590;28;20027;-43
2021/11/04 00:45:58;;;;;;;23.35;11.95;;;7.40;99.90;;;;;;5069450;28;20155;-43
2021/11/04 00:48:23;;;;;;;17.27;12.77;;;7.30;99.90;;;;;;5055714;28;20029;-44
2021/11/04 00:50:49;;;;;;;19.73;13.80;;;7.30;99.90;;;;;;5068336;28;20039;-42
2021/11/04 00:53:14;;;;;;;29.88;13.23;;;7.30;99.90;;;;;;5056993;28;20025;-43
2021/11/04 00:55:40;;;;;;;36.35;13.30;;;7.20;99.90;;;;;;5067111;28;20032;-42
2021/11/04 00:58:05;;;;;;;22.55;11.98;;;7.10;99.90;;;;;;5058842;28;20111;-43
2021/11/04 01:00:31;;;;;;;34.00;13.27;;;7.10;99.90;;;;;;5052038;28;20415;-42
2021/11/04 01:02:56;;;;;;;27.73;12.98;;;7.10;99.90;;;;;;5055365;28;20108;-43
2021/11/04 01:05:25;;;;;;;29.92;12.65;;;7.20;99.90;;;;;;5054294;28;20021;-41
2021/11/04 01:07:50;;;;;;;41.03;13.13;;;7.20;99.90;;;;;;5052537;28;20016;-42
2021/11/04 01:10:16;;;;;;;26.35;12.98;;;7.20;99.90;;;;;;5056801;28;20033;-43
2021/11/04 01:12:42;;;;;;;18.75;13.27;;;7.30;99.90;;;;;;5050064;28;20017;-42
2021/11/04 01:15:08;;;;;;;40.05;12.90;;;7.30;99.90;;;;;;5058181;28;20071;-43
2021/11/04 01:17:37;;;;;;;28.67;12.68;;;7.20;99.90;;;;;;5049145;28;20441;-43
2021/11/04 01:20:04;;;;;;;27.33;12.00;;;7.10;99.90;;;;;;5059598;28;20029;-42
2021/11/04 01:22:30;;;;;;;31.00;11.63;;;7.10;99.90;;;;;;5048426;28;20021;-42
2021/11/04 01:24:55;;;;;;;31.27;11.88;;;7.10;99.90;;;;;;5059579;28;20116;-43
2021/11/04 01:27:21;;;;;;;29.05;10.55;;;7.10;99.90;;;;;;5048879;28;20079;-42
2021/11/04 01:29:46;;;;;;;49.50;11.52;;;7.20;99.90;;;;;;5058712;28;20021;-43
2021/11/04 01:32:12;;;;;;;31.50;10.48;;;7.20;99.90;;;;;;5048309;28;20061;-43
2021/11/04 01:34:37;;;;;;;18.77;11.05;;;7.20;99.90;;;;;;5052186;28;20595;-42
2021/11/04 01:37:03;;;;;;;21.85;11.40;;;7.20;99.90;;;;;;5066240;28;20039;-42
2021/11/04 01:39:29;;;;;;;29.85;11.82;;;7.30;99.90;;;;;;5057563;28;20017;-42
2021/11/04 01:41:57;;;;;;;37.47;12.02;;;7.20;99.90;;;;;;5065061;28;20123;-42
2021/11/04 01:44:23;;;;;;;25.73;12.95;;;7.30;99.90;;;;;;5059485;28;20535;-42
2021/11/04 01:46:50;;;;;;;21.48;12.02;;;7.30;99.90;;;;;;5062917;28;20059;-42
2021/11/04 01:49:16;;;;;;;27.85;13.93;;;7.30;99.90;;;;;;5062458;28;20024;-42
2021/11/04 01:51:43;;;;;;;22.25;14.18;;;7.30;99.90;;;;;;5059589;28;20047;-42
2021/11/04 01:54:09;;;;;;;21.55;13.93;;;7.30;99.90;;;;;;5065453;28;20359;-43
2021/11/04 01:56:38;;;;;;;21.92;13.98;;;7.20;99.90;;;;;;5057330;28;20111;-43
2021/11/04 01:59:04;;;;;;;20.55;13.48;;;7.20;99.90;;;;;;5065182;28;20465;-42
2021/11/04 02:01:30;;;;;;;19.77;12.85;;;7.30;99.90;;;;;;5055938;28;20050;-43
2021/11/04 02:04:14;;;;;;;20.88;12.93;;;7.30;99.90;;;;;;5065609;28;20128;-44
2021/11/04 02:06:51;;;;;;;24.67;13.60;;;7.30;99.90;;;;;;5056003;28;20028;-42
2021/11/04 02:09:29;;;;;;;23.65;13.20;;;7.30;99.90;;;;;;5065864;28;20389;-44
2021/11/04 02:12:20;;;;;;;20.77;13.73;;;7.30;99.90;;;;;;5055619;28;20048;-43
2021/11/04 02:14:53;;;;;;;24.77;13.63;;;7.30;99.90;;;;;;5065082;28;20559;-44
2021/11/04 02:17:22;;;;;;;29.85;14.23;;;7.30;99.90;;;;;;5057455;28;20021;-43
2021/11/04 02:19:57;;;;;;;27.48;15.38;;;7.30;99.90;;;;;;5065242;28;20097;-44
2021/11/04 02:22:54;;;;;;;26.20;14.77;;;7.30;99.90;;;;;;5045257;28;20472;-43
2021/11/04 02:25:40;;;;;;;31.55;14.75;;;7.30;99.90;;;;;;5063561;28;20055;-43
2021/11/04 02:28:09;;;;;;;23.77;15.00;;;7.30;99.90;;;;;;5061267;28;20017;-43
2021/11/04 02:30:35;;;;;;;27.38;15.25;;;7.30;99.90;;;;;;5062989;28;20435;-43
2021/11/04 02:33:02;;;;;;;27.10;15.30;;;7.30;99.90;;;;;;5058133;28;20029;-44
2021/11/04 02:35:31;;;;;;;24.52;15.35;;;7.30;99.90;;;;;;5065141;28;20089;-43
2021/11/04 02:37:57;;;;;;;26.17;15.63;;;7.30;99.90;;;;;;5056818;28;20116;-43
2021/11/04 02:40:23;;;;;;;23.65;14.10;;;7.40;99.90;;;;;;5063934;28;20435;-43
2021/11/04 02:42:54;;;;;;;22.88;15.05;;;7.40;99.90;;;;;;5055306;28;20104;-43
2021/11/04 02:45:22;;;;;;;23.48;14.88;;;7.30;99.90;;;;;;5065350;28;20021;-43
2021/11/04 02:47:48;;;;;;;24.00;14.88;;;7.30;99.90;;;;;;5055471;28;20016;-42
2021/11/04 02:50:18;;;;;;;24.50;15.30;;;7.40;99.90;;;;;;5067501;28;20138;-43
2021/11/04 02:52:44;;;;;;;26.90;15.50;;;7.30;99.90;;;;;;5054231;28;20086;-42
2021/11/04 02:55:10;;;;;;;26.05;15.65;;;7.30;99.90;;;;;;5066571;28;20036;-43
2021/11/04 02:57:49;;;;;;;24.35;15.77;;;7.30;99.90;;;;;;5053121;28;20059;-42
2021/11/04 03:00:17;;;;;;;21.63;13.77;;;7.30;99.90;;;;;;5066888;28;20384;-42
2021/11/04 03:02:43;;;;;;;22.85;16.27;;;7.40;99.90;;;;;;5053132;28;20730;-42
2021/11/04 03:05:09;;;;;;;23.20;15.40;;;7.40;99.90;;;;;;5066922;28;20029;-42
2021/11/04 03:07:35;;;;;;;22.27;15.68;;;7.40;99.90;;;;;;5055249;28;20025;-43
2021/11/04 03:10:00;;;;;;;28.02;17.95;;;7.30;99.90;;;;;;5064806;28;20075;-43
2021/11/04 03:12:29;;;;;;;25.98;17.23;;;7.30;99.90;;;;;;5058144;28;20389;-43
2021/11/04 03:14:57;;;;;;;23.73;16.15;;;7.30;99.90;;;;;;5062688;28;20020;-43
2021/11/04 03:17:23;;;;;;;23.77;15.60;;;7.30;99.90;;;;;;5059465;28;20013;-43
2021/11/04 03:19:49;;;;;;;24.80;15.88;;;7.30;99.90;;;;;;5060621;28;20032;-42
2021/11/04 03:22:14;;;;;;;26.25;15.65;;;7.40;99.90;;;;;;5061622;28;20020;-43
2021/11/04 03:24:40;;;;;;;26.63;17.00;;;7.40;99.90;;;;;;5057855;28;20025;-43
2021/11/04 03:27:07;;;;;;;27.45;16.90;;;7.40;99.90;;;;;;5065596;28;20027;-42
2021/11/04 03:29:36;;;;;;;27.85;17.02;;;7.40;99.90;;;;;;5044265;28;20060;-43
2021/11/04 03:32:05;;;;;;;28.48;16.38;;;7.40;99.90;;;;;;5059314;28;20082;-43
2021/11/04 03:34:32;;;;;;;27.83;17.15;;;7.40;99.90;;;;;;5057376;28;20021;-43
2021/11/04 03:37:01;;;;;;;27.20;16.13;;;7.50;99.90;;;;;;5046651;28;20033;-43
2021/11/04 03:39:27;;;;;;;27.38;16.90;;;7.50;99.90;;;;;;5053975;28;20172;-43
2021/11/04 03:41:56;;;;;;;28.48;16.65;;;7.50;99.90;;;;;;5046328;28;20473;-43
2021/11/04 03:44:23;;;;;;;29.27;18.00;;;7.50;99.90;;;;;;5058365;28;20465;-44
2021/11/04 03:46:55;;;;;;;29.38;18.15;;;7.50;99.90;;;;;;5046501;28;20029;-43
2021/11/04 03:49:23;;;;;;;32.58;19.75;;;7.60;99.90;;;;;;5058727;28;20029;-42
2021/11/04 03:51:51;;;;;;;33.53;19.25;;;7.60;99.90;;;;;;5047687;28;20033;-42
2021/11/04 03:54:19;;;;;;;34.38;19.33;;;7.60;99.90;;;;;;5062419;28;20031;-42
2021/11/04 03:56:44;;;;;;;35.90;19.60;;;7.70;99.90;;;;;;5049743;28;20048;-43
2021/11/04 03:59:10;;;;;;;37.47;19.98;;;7.70;99.90;;;;;;5059633;28;20021;-43
2021/11/04 04:01:36;;;;;;;40.83;21.77;;;7.70;99.90;;;;;;5052859;28;20079;-43
2021/11/04 04:04:03;;;;;;;29.33;17.50;;;7.70;99.90;;;;;;5056675;28;20016;-43
2021/11/04 04:06:28;;;;;;;38.55;19.90;;;7.70;99.90;;;;;;5055175;28;20117;-43
2021/11/04 04:08:55;;;;;;;36.58;21.20;;;7.70;99.90;;;;;;5054631;28;20165;-42
2021/11/04 04:11:22;;;;;;;41.17;22.55;;;7.70;99.90;;;;;;5056896;28;20046;-42
2021/11/04 04:13:50;;;;;;;40.97;21.88;;;7.70;99.90;;;;;;5052685;28;20028;-42
2021/11/04 04:16:16;;;;;;;38.13;20.13;;;7.70;99.90;;;;;;5059902;28;20028;-42
2021/11/04 04:18:45;;;;;;;36.15;19.98;;;7.70;99.90;;;;;;5049905;28;20492;-42
2021/11/04 04:21:10;;;;;;;45.65;21.95;;;7.70;99.90;;;;;;5061336;28;20106;-42
2021/11/04 04:23:36;;;;;;;35.65;19.80;;;7.70;99.90;;;;;;5050785;28;20029;-43
2021/11/04 04:26:01;;;;;;;38.58;20.88;;;7.70;99.90;;;;;;5060225;28;20147;-43
2021/11/04 04:28:27;;;;;;;40.45;21.10;;;7.70;99.90;;;;;;5049316;28;20548;-43
2021/11/04 04:30:52;;;;;;;37.40;20.75;;;7.70;99.90;;;;;;5062135;28;20033;-42
2021/11/04 04:33:18;;;;;;;45.97;22.90;;;7.70;99.90;;;;;;5048978;28;20374;-42
2021/11/04 04:35:44;;;;;;;39.00;21.92;;;7.70;99.90;;;;;;5051965;28;20451;-43
2021/11/04 04:38:09;;;;;;;40.40;22.85;;;7.70;99.90;;;;;;5069399;28;20056;-42
2021/11/04 04:40:35;;;;;;;37.63;21.52;;;7.70;99.90;;;;;;5058688;28;20091;-44
2021/11/04 04:43:01;;;;;;;36.10;21.02;;;7.70;99.90;;;;;;5066950;28;20392;-42
2021/11/04 04:45:26;;;;;;;37.70;20.45;;;7.70;99.90;;;;;;5061167;28;20483;-44
2021/11/04 04:47:52;;;;;;;35.22;19.60;;;7.70;99.90;;;;;;5062905;28;20114;-42
2021/11/04 04:50:17;;;;;;;37.67;21.48;;;7.70;99.90;;;;;;5063619;28;20044;-44
2021/11/04 04:52:43;;;;;;;35.47;19.83;;;7.70;99.90;;;;;;5061280;28;20030;-44
2021/11/04 04:55:09;;;;;;;35.42;20.10;;;7.70;99.90;;;;;;5066601;28;20034;-43
2021/11/04 04:57:35;;;;;;;32.72;18.92;;;7.70;99.90;;;;;;5064389;28;20039;-43
2021/11/04 05:00:09;;;;;;;32.00;19.80;;;7.70;99.90;;;;;;5066802;28;20029;-43
2021/11/04 05:02:35;;;;;;;27.20;16.58;;;7.70;99.90;;;;;;5057132;28;20468;-43
2021/11/04 05:05:00;;;;;;;31.75;19.05;;;7.70;99.90;;;;;;5067502;28;20039;-42
2021/11/04 05:07:26;;;;;;;32.40;19.27;;;7.70;99.90;;;;;;5057396;28;20017;-43
2021/11/04 05:09:55;;;;;;;28.20;16.98;;;7.60;99.90;;;;;;5069009;28;20021;-43
2021/11/04 05:12:20;;;;;;;30.17;17.90;;;7.60;99.90;;;;;;5056252;28;20066;-43
2021/11/04 05:14:52;;;;;;;34.15;21.00;;;7.60;99.90;;;;;;5068382;28;20032;-43
2021/11/04 05:17:17;;;;;;;32.47;20.48;;;7.60;99.90;;;;;;5056054;28;20071;-43
2021/11/04 05:19:43;;;;;;;33.03;20.65;;;7.60;99.90;;;;;;5068379;28;20036;-43
2021/11/04 05:22:08;;;;;;;35.72;20.58;;;7.60;99.90;;;;;;5056665;28;20444;-43
2021/11/04 05:24:34;;;;;;;33.70;19.85;;;7.60;99.90;;;;;;5067315;28;20028;-43
2021/11/04 05:27:04;;;;;;;34.60;20.23;;;7.60;99.90;;;;;;5059556;28;20428;-43
2021/11/04 05:29:30;;;;;;;45.72;21.45;;;7.60;99.90;;;;;;5063700;28;20032;-44
2021/11/04 05:31:57;;;;;;;36.00;21.92;;;7.60;99.90;;;;;;5064533;28;20463;-44
2021/11/04 05:34:41;;;;;;;36.03;20.25;;;7.60;99.90;;;;;;5054086;28;20025;-45
2021/11/04 05:37:10;;;;;;;32.08;20.00;;;7.60;99.90;;;;;;5054918;28;20094;-43
2021/11/04 05:39:42;;;;;;;34.35;19.80;;;7.60;99.90;;;;;;5053327;28;20017;-43
2021/11/04 05:42:09;;;;;;;34.05;20.52;;;7.60;99.90;;;;;;5053153;28;20593;-43
2021/11/04 05:44:35;;;;;;;35.42;20.25;;;7.60;99.90;;;;;;5053989;28;20501;-43
2021/11/04 05:47:02;;;;;;;29.98;19.20;;;7.60;99.90;;;;;;5050822;28;20492;-43
2021/11/04 05:49:28;;;;;;;35.78;21.10;;;7.60;99.90;;;;;;5055893;28;20028;-43
2021/11/04 05:51:53;;;;;;;34.50;19.98;;;7.60;99.90;;;;;;5049743;28;20013;-43
2021/11/04 05:54:19;;;;;;;33.97;20.17;;;7.60;99.90;;;;;;5059420;28;20037;-44
2021/11/04 05:56:45;;;;;;;34.83;20.50;;;7.70;99.90;;;;;;5052980;28;20450;-43
2021/11/04 05:59:10;;;;;;;31.23;20.08;;;7.70;99.90;;;;;;5056496;28;20043;-43
2021/11/04 06:01:36;;;;;;;38.45;19.92;;;7.60;99.90;;;;;;5067552;28;20025;-43
2021/11/04 06:04:01;;;;;;;33.22;19.25;;;7.60;99.90;;;;;;5054310;28;20027;-42
2021/11/04 06:06:27;;;;;;;33.58;20.42;;;7.70;99.90;;;;;;5067782;28;20817;-44
2021/11/04 06:08:52;;;;;;;29.38;19.40;;;7.60;99.90;;;;;;5055306;28;20575;-43
2021/11/04 06:11:18;;;;;;;27.75;18.05;;;7.60;99.90;;;;;;5067055;28;20040;-43
2021/11/04 06:13:44;;;;;;;31.00;19.52;;;7.60;99.90;;;;;;5056162;28;20021;-43
2021/11/04 06:16:18;;;;;;;30.27;20.42;;;7.60;99.90;;;;;;5065411;28;20511;-43
2021/11/04 06:18:44;;;;;;;29.75;19.58;;;7.60;99.90;;;;;;5057700;28;20412;-43
2021/11/04 06:21:13;;;;;;;29.90;19.75;;;7.60;99.90;;;;;;5064569;28;20025;-43
2021/11/04 06:23:40;;;;;;;27.80;18.67;;;7.60;99.90;;;;;;5060166;28;20104;-43
2021/11/04 06:26:09;;;;;;;32.45;19.95;;;7.60;99.90;;;;;;5061440;28;20024;-43
2021/11/04 06:28:35;;;;;;;31.33;20.48;;;7.60;99.90;;;;;;5062934;28;20025;-43
2021/11/04 06:31:03;;;;;;;37.40;22.92;;;7.60;99.90;;;;;;5059815;28;20036;-43
2021/11/04 06:33:29;;;;;;;30.38;19.42;;;7.60;99.90;;;;;;5050879;28;20124;-43
2021/11/04 06:35:55;;;;;;;34.15;20.08;;;7.60;99.90;;;;;;5058000;28;20527;-42
2021/11/04 06:38:22;;;;;;;32.28;19.85;;;7.60;99.90;;;;;;5065923;28;20032;-42
2021/11/04 06:40:48;;;;;;;28.85;19.00;;;7.60;99.90;;;;;;5055648;28;20111;-44
2021/11/04 06:43:14;;;;;;;37.15;17.77;;;7.60;99.90;;;;;;5066370;28;20137;-43
2021/11/04 06:45:48;;;;;;;33.95;18.05;;;7.60;99.90;;;;;;5049565;28;20694;-42
2021/11/04 06:48:22;;;;;;;28.88;18.02;;;7.60;99.90;;;;;;5047004;28;20017;-42
2021/11/04 06:50:49;;;;;;;37.92;17.33;;;7.60;99.90;;;;;;5055478;28;20043;-42
2021/11/04 06:53:20;;;;;;;31.13;16.67;;;7.60;99.90;;;;;;5061473;28;20046;-43
2021/11/04 06:55:46;;;;;;;28.75;15.90;;;7.50;99.90;;;;;;5051485;28;20041;-43
2021/11/04 06:58:14;;;;;;;35.80;16.02;;;7.50;99.90;;;;;;5063760;28;20086;-43
2021/11/04 07:00:45;;;;;;;28.08;14.77;;;7.60;99.90;;;;;;5050889;28;20484;-43
2021/11/04 07:03:28;;;;;;;30.25;16.20;;;7.50;99.90;;;;;;5045034;28;20042;-44
2021/11/04 07:06:08;;;;;;;37.72;16.30;;;7.50;99.90;;;;;;5050568;28;20028;-43
2021/11/04 07:08:49;;;;;;;24.35;15.40;;;7.60;99.90;;;;;;5064483;28;20028;-44
2021/11/04 07:11:15;;;;;;;22.40;13.43;;;7.50;99.90;;;;;;5052333;28;20043;-44
2021/11/04 07:13:41;;;;;;;32.30;14.95;;;7.50;99.90;;;;;;5063911;28;20339;-44
2021/11/04 07:16:11;;;;;;;22.52;14.93;;;7.50;99.90;;;;;;5052473;28;20536;-43
2021/11/04 07:18:37;;;;;;;23.27;13.82;;;7.50;99.90;;;;;;5064773;28;20074;-43
2021/11/04 07:21:15;;;;;;;29.60;13.63;;;7.50;99.90;;;;;;5053338;28;20039;-43
2021/11/04 07:23:50;;;;;;;25.25;14.80;;;7.40;99.90;;;;;;5025833;28;20056;-44
2021/11/04 07:26:16;;;;;;;19.90;14.43;;;7.50;99.90;;;;;;5057154;28;20027;-43
2021/11/04 07:28:43;;;;;;;20.73;14.57;;;7.50;99.90;;;;;;5049561;28;20139;-43
2021/11/04 07:31:10;;;;;;;20.90;14.05;;;7.60;99.90;;;;;;5058167;28;20054;-43
2021/11/04 07:33:42;;;;;;;21.88;12.50;;;7.60;99.90;;;;;;5049685;28;20017;-43
2021/11/04 07:36:14;;;;;;;22.02;12.88;;;7.60;99.90;;;;;;5056347;28;20021;-42
2021/11/04 07:38:41;;;;;;;26.95;13.32;;;7.60;99.90;;;;;;5053125;28;20064;-42
2021/11/04 07:41:06;;;;;;;20.33;11.88;;;7.60;99.90;;;;;;5055568;28;20121;-42
2021/11/04 07:43:35;;;;;;;20.77;14.05;;;7.60;99.90;;;;;;5055309;28;20095;-43
2021/11/04 07:46:02;;;;;;;19.45;13.57;;;7.60;99.90;;;;;;5050175;28;20110;-42
2021/11/04 07:48:28;;;;;;;29.67;12.50;;;7.60;99.90;;;;;;5060121;28;20029;-44
2021/11/04 07:50:54;;;;;;;28.10;13.13;;;7.60;99.90;;;;;;5054298;28;20114;-44
2021/11/04 07:53:20;;;;;;;26.10;14.00;;;7.60;99.90;;;;;;5060368;28;20072;-43
2021/11/04 07:55:45;;;;;;;23.92;12.73;;;7.70;99.90;;;;;;5049395;28;20048;-44
2021/11/04 07:58:11;;;;;;;21.75;13.18;;;7.60;99.90;;;;;;5060603;28;20166;-43
2021/11/04 08:00:36;;;;;;;25.33;12.88;;;7.70;99.90;;;;;;5048728;28;20120;-44
2021/11/04 08:03:02;;;;;;;37.72;14.43;;;7.70;99.90;;;;;;5060620;28;20021;-43
2021/11/04 08:05:27;;;;;;;28.83;13.57;;;7.70;99.90;;;;;;5048177;28;20025;-43
2021/11/04 08:07:53;;;;;;;18.25;12.60;;;7.80;99.90;;;;;;5061115;28;20025;-43
2021/11/04 08:10:20;;;;;;;28.60;13.68;;;7.80;99.90;;;;;;5048818;28;20041;-43
2021/11/04 08:12:46;;;;;;;20.55;13.63;;;7.90;99.90;;;;;;5058949;28;20511;-44
2021/11/04 08:15:13;;;;;;;18.83;13.77;;;7.90;99.90;;;;;;5050839;28;20104;-45
2021/11/04 08:17:39;;;;;;;18.67;13.48;;;8.00;99.90;;;;;;5056713;28;20487;-43
2021/11/04 08:20:06;;;;;;;19.23;14.27;;;8.10;99.90;;;;;;5053580;28;20036;-43
2021/11/04 08:22:32;;;;;;;18.70;12.63;;;8.20;99.90;;;;;;5054676;28;20035;-43
2021/11/04 08:24:59;;;;;;;21.75;14.35;;;8.30;99.90;;;;;;5054396;28;20036;-44
2021/11/04 08:27:24;;;;;;;21.40;14.52;;;8.30;99.90;;;;;;5051992;28;20021;-43
2021/11/04 08:29:50;;;;;;;22.40;13.43;;;8.40;99.90;;;;;;5057749;28;20495;-43
2021/11/04 08:32:15;;;;;;;18.17;13.75;;;8.40;99.90;;;;;;5049872;28;20490;-44
2021/11/04 08:34:42;;;;;;;17.30;13.10;;;8.40;99.90;;;;;;5059471;28;20038;-44
2021/11/04 08:37:12;;;;;;;21.73;14.55;;;8.40;99.90;;;;;;5049712;28;20032;-43
2021/11/04 08:39:39;;;;;;;21.70;15.50;;;8.50;99.90;;;;;;5058043;28;20040;-43
2021/11/04 08:42:07;;;;;;;20.90;14.98;;;8.50;99.90;;;;;;5049186;28;20648;-43
2021/11/04 08:44:33;;;;;;;22.65;16.33;;;8.50;99.90;;;;;;5060543;28;20111;-43
2021/11/04 08:47:00;;;;;;;20.38;14.80;;;8.50;99.90;;;;;;5047606;28;20029;-42
2021/11/04 08:49:29;;;;;;;19.42;14.68;;;8.60;99.90;;;;;;5060574;28;20574;-43
2021/11/04 08:51:55;;;;;;;20.48;14.45;;;8.50;99.90;;;;;;5048048;28;20040;-44
2021/11/04 08:54:25;;;;;;;20.55;15.73;;;8.60;99.90;;;;;;5060354;28;20025;-43
2021/11/04 08:56:53;;;;;;;21.35;15.98;;;8.60;99.90;;;;;;5027869;28;20532;-44
2021/11/04 08:59:19;;;;;;;22.90;16.38;;;8.60;99.90;;;;;;5052940;28;20012;-43
2021/11/04 09:01:46;;;;;;;21.75;16.55;;;8.70;99.90;;;;;;5049636;28;20032;-42
2021/11/04 09:04:12;;;;;;;19.95;15.45;;;8.60;99.90;;;;;;5056339;28;20106;-43
2021/11/04 09:06:39;;;;;;;22.63;15.85;;;8.60;99.90;;;;;;5051346;28;20040;-42
2021/11/04 09:09:05;;;;;;;22.23;15.68;;;8.70;99.90;;;;;;5054181;28;20028;-43
2021/11/04 09:11:31;;;;;;;21.65;15.88;;;8.70;99.90;;;;;;5054381;28;20040;-42
2021/11/04 09:13:58;;;;;;;21.60;14.88;;;8.80;99.90;;;;;;5051148;28;20461;-43
2021/11/04 09:16:25;;;;;;;20.92;15.05;;;8.90;99.90;;;;;;5056595;28;20029;-43
2021/11/04 09:18:50;;;;;;;23.65;16.27;;;8.90;99.90;;;;;;5049069;28;20373;-44
2021/11/04 09:21:16;;;;;;;21.02;16.05;;;8.90;99.90;;;;;;5056896;28;20036;-43
2021/11/04 09:23:41;;;;;;;19.00;14.82;;;9.00;99.90;;;;;;5048698;28;20047;-44
2021/11/04 09:26:07;;;;;;;23.85;16.80;;;9.00;99.90;;;;;;5059338;28;20102;-44
2021/11/04 09:28:32;;;;;;;24.35;16.90;;;9.00;99.90;;;;;;5047260;28;20491;-44
2021/11/04 09:31:01;;;;;;;22.58;16.35;;;9.10;99.90;;;;;;5059796;28;20041;-44
2021/11/04 09:33:26;;;;;;;22.35;17.38;;;9.20;99.90;;;;;;5047598;28;20033;-42
2021/11/04 09:35:52;;;;;;;21.98;16.33;;;9.20;99.90;;;;;;5051810;28;20074;-43
2021/11/04 09:38:17;;;;;;;21.58;16.35;;;9.30;99.90;;;;;;5067925;28;20027;-43
2021/11/04 09:40:43;;;;;;;21.42;16.00;;;9.30;99.90;;;;;;5055743;28;20017;-42
2021/11/04 09:43:12;;;;;;;20.33;15.48;;;9.30;99.90;;;;;;5065708;28;20111;-43
2021/11/04 09:45:38;;;;;;;20.20;15.88;;;9.40;99.90;;;;;;5058580;28;20031;-43
2021/11/04 09:48:04;;;;;;;18.50;14.60;;;9.40;99.90;;;;;;5063386;28;20025;-42
2021/11/04 09:50:29;;;;;;;19.40;16.13;;;9.40;99.90;;;;;;5059883;28;20072;-44
2021/11/04 09:52:55;;;;;;;21.00;16.65;;;9.50;99.90;;;;;;5060855;28;20059;-43
2021/11/04 09:55:27;;;;;;;22.27;16.88;;;9.50;99.90;;;;;;5053508;28;20100;-43
2021/11/04 09:58:00;;;;;;;23.37;16.63;;;9.50;99.90;;;;;;5054654;28;20378;-43
2021/11/04 10:00:38;;;;;;;20.60;15.68;;;9.60;99.90;;;;;;5050028;28;20025;-42
2021/11/04 10:03:09;;;;;;;24.38;16.92;;;9.60;99.90;;;;;;5061613;28;20025;-42
2021/11/04 10:05:46;;;;;;;26.45;19.33;;;9.60;99.90;;;;;;5063817;28;20051;-43
2021/11/04 10:08:31;;;;;;;24.02;17.10;;;9.60;99.90;;;;;;5058580;28;20025;-43
2021/11/04 10:11:06;;;;;;;25.15;18.13;;;9.60;99.90;;;;;;5061941;28;20044;-43
2021/11/04 10:13:35;;;;;;;19.95;15.10;;;9.60;99.90;;;;;;5059892;28;20415;-43
2021/11/04 10:16:00;;;;;;;22.80;17.10;;;9.60;99.90;;;;;;5062697;28;20025;-44
2021/11/04 10:18:26;;;;;;;22.83;15.30;;;9.70;99.90;;;;;;5057305;28;20035;-43
2021/11/04 10:20:57;;;;;;;23.48;16.48;;;9.70;99.90;;;;;;5064914;28;20493;-43
2021/11/04 10:23:24;;;;;;;20.70;15.38;;;9.70;99.90;;;;;;5044719;28;20139;-43
2021/11/04 10:25:50;;;;;;;21.27;15.52;;;9.70;99.90;;;;;;5064328;28;20012;-43
2021/11/04 10:28:38;;;;;;;21.30;15.55;;;9.80;99.90;;;;;;5055521;28;20028;-42
2021/11/04 10:31:09;;;;;;;20.75;15.77;;;9.80;99.90;;;;;;5063225;28;20082;-43
2021/11/04 10:33:37;;;;;;;23.05;17.05;;;9.80;99.90;;;;;;5054446;28;20016;-43
2021/11/04 10:36:21;;;;;;;21.17;16.15;;;9.80;99.90;;;;;;5064614;28;20070;-43
2021/11/04 10:38:52;;;;;;;21.42;16.27;;;9.80;99.90;;;;;;5054005;28;20040;-43
2021/11/04 10:41:23;;;;;;;20.02;16.05;;;9.80;99.90;;;;;;5062167;28;20033;-43
2021/11/04 10:43:52;;;;;;;15.98;13.50;;;9.80;99.90;;;;;;5055019;28;20495;-44
2021/11/04 10:46:17;;;;;;;24.02;17.50;;;9.80;99.90;;;;;;5064758;28;20032;-44
2021/11/04 10:48:45;;;;;;;19.67;15.93;;;9.80;99.90;;;;;;5054111;28;20357;-43
2021/11/04 10:51:13;;;;;;;19.08;15.70;;;9.80;99.90;;;;;;5066710;28;20087;-42
2021/11/04 10:53:39;;;;;;;19.88;15.85;;;9.80;99.90;;;;;;5052239;28;20033;-43
2021/11/04 10:56:07;;;;;;;21.88;15.80;;;9.80;99.90;;;;;;5060039;28;20484;-42
2021/11/04 10:58:40;;;;;;;19.88;15.35;;;9.80;99.90;;;;;;5058338;28;20115;-42
2021/11/04 11:01:06;;;;;;;;;;;9.90;99.90;;;;;;5046152;28;20029;-43
2021/11/04 11:03:31;;;;;;;18.90;14.18;;;9.90;99.90;;;;;;5056841;28;19914;-42
2021/11/04 11:06:05;;;;;;;18.98;15.05;;;9.90;99.90;;;;;;5046445;28;20032;-43
2021/11/04 11:08:31;;;;;;;19.15;14.60;;;10.00;99.90;;;;;;5055337;28;20114;-42
2021/11/04 11:10:56;;;;;;;17.30;14.82;;;10.10;99.90;;;;;;5048563;28;20049;-43
2021/11/04 11:13:22;;;;;;;18.33;14.65;;;10.10;99.90;;;;;;5052806;28;20017;-43
2021/11/04 11:15:55;;;;;;;20.23;15.88;;;10.10;99.90;;;;;;5051114;28;20062;-43
2021/11/04 11:18:22;;;;;;;15.85;13.05;;;10.10;99.90;;;;;;5051172;28;20020;-42
2021/11/04 11:20:49;;;;;;;18.02;14.77;;;10.20;99.90;;;;;;5052051;28;20017;-43
2021/11/04 11:23:15;;;;;;;17.02;13.45;;;10.30;99.90;;;;;;5049386;28;20021;-43
2021/11/04 11:25:42;;;;;;;16.15;14.25;;;10.30;99.90;;;;;;5061084;28;20557;-44
2021/11/04 11:28:07;;;;;;;17.02;13.93;;;10.30;99.90;;;;;;5057591;28;20029;-44
2021/11/04 11:30:33;;;;;;;17.52;14.13;;;10.40;99.90;;;;;;5054385;28;20090;-43
2021/11/04 11:33:22;;;;;;;15.90;13.95;;;10.40;99.90;;;;;;5049654;28;20040;-43
2021/11/04 11:36:18;;;;;;;16.50;13.70;;;10.40;99.90;;;;;;5042870;28;20028;-43
2021/11/04 11:38:56;;;;;;;16.15;14.38;;;10.40;99.90;;;;;;5062323;28;20119;-42
2021/11/04 11:41:54;;;;;;;17.42;13.73;;;10.40;99.90;;;;;;5041011;28;20384;-43
2021/11/04 11:44:37;;;;;;;16.20;14.15;;;10.40;99.90;;;;;;5040169;28;20067;-42
2021/11/04 11:47:05;;;;;;;17.67;13.65;;;10.30;99.90;;;;;;5048945;28;20040;-42
2021/11/04 11:49:34;;;;;;;15.18;12.75;;;10.30;99.90;;;;;;5050501;28;20016;-42
2021/11/04 11:52:00;;;;;;;16.85;13.55;;;10.30;99.90;;;;;;5050677;28;20037;-43
2021/11/04 11:54:47;;;;;;;14.70;12.73;;;10.20;99.90;;;;;;5049660;28;20028;-43
2021/11/04 11:57:13;;;;;;;17.63;13.18;;;10.30;99.90;;;;;;5059985;28;20051;-43
2021/11/04 12:00:08;;;;;;;19.23;13.50;;;10.30;99.90;;;;;;5060252;28;20051;-44
2021/11/04 12:02:34;;;;;;;14.88;12.98;;;10.20;99.90;;;;;;5061619;28;20021;-43
2021/11/04 12:05:22;;;;;;;16.95;13.63;;;10.20;99.90;;;;;;5058951;28;20040;-45
2021/11/04 12:08:13;;;;;;;17.33;14.07;;;10.20;99.90;;;;;;5061993;28;20048;-44
2021/11/04 12:10:40;;;;;;;16.60;13.77;;;10.20;99.90;;;;;;5053986;28;20268;-45
2021/11/04 12:13:05;;;;;;;15.95;13.02;;;10.20;99.90;;;;;;5066321;28;20032;-45
2021/11/04 12:15:31;;;;;;;15.40;12.95;;;10.20;99.90;;;;;;5061327;28;20107;-43
2021/11/04 12:18:14;;;;;;;15.07;12.27;;;10.20;99.90;;;;;;5063358;28;20048;-44
2021/11/04 12:20:57;;;;;;;16.30;12.98;;;10.20;99.90;;;;;;5060846;28;20028;-43
2021/11/04 12:23:36;;;;;;;16.38;13.63;;;10.30;99.90;;;;;;5066372;28;20085;-44
2021/11/04 12:26:03;;;;;;;14.90;13.00;;;10.30;99.90;;;;;;5059580;28;20028;-43
2021/11/04 12:28:48;;;;;;;17.50;14.13;;;10.40;99.90;;;;;;5065664;28;20073;-43
2021/11/04 12:31:25;;;;;;;14.05;11.70;;;10.40;99.90;;;;;;5058677;28;20452;-43
2021/11/04 12:33:52;;;;;;;15.93;13.13;;;10.50;99.90;;;;;;5067514;28;20107;-43
2021/11/04 12:36:44;;;;;;;15.15;12.77;;;10.60;99.90;;;;;;5060564;28;20068;-43
2021/11/04 12:39:22;;;;;;;16.77;13.85;;;10.60;99.90;;;;;;5046140;28;20120;-43
2021/11/04 12:41:49;;;;;;;13.52;11.70;;;10.70;99.90;;;;;;5059338;28;20056;-43
2021/11/04 12:44:20;;;;;;;15.18;12.75;;;10.80;99.90;;;;;;5049254;28;20106;-43